sensor_id;sensor_type;location;lat;lon;timestamp;temperature;humidity
26537;DHT22;14204;51.262;5.488;2024-01-10T00:01:34;-1.80;99.90
26537;DHT22;14204;51.262;5.488;2024-01-10T00:04:00;-1.70;99.90
26537;DHT22;14204;51.262;5.488;2024-01-10T00:06:25;-1.70;99.90
26537;DHT22;14204;51.262;5.488;2024-01-10T00:08:51;-1.70;99.90
26537;DHT22;14204;51.262;5.488;2024-01-10T00:11:17;-1.60;99.90
26537;DHT22;14204;51.262;5.488;2024-01-10T00:13:43;-1.60;99.90
26537;DHT22;14204;51.262;5.488;2024-01-10T00:16:11;-1.70;99.90
26537;DHT22;14204;51.262;5.488;2024-01-10T00:18:37;-1.60;99.90
26537;DHT22;14204;51.262;5.488;2024-01-10T00:21:03;-1.60;99.90
26537;DHT22;14204;51.262;5.488;2024-01-10T00:23:28;-1.60;99.90
26537;DHT22;14204;51.262;5.488;2024-01-10T00:25:54;-1.60;99.90
26537;DHT22;14204;51.262;5.488;2024-01-10T00:28:20;-1.60;99.90
26537;DHT22;14204;51.262;5.488;2024-01-10T00:30:46;-1.60;99.90
26537;DHT22;14204;51.262;5.488;2024-01-10T00:33:14;-1.60;99.90
26537;DHT22;14204;51.262;5.488;2024-01-10T00:35:39;-1.60;99.90
26537;DHT22;14204;51.262;5.488;2024-01-10T00:38:05;-1.60;99.90
26537;DHT22;14204;51.262;5.488;2024-01-10T00:40:31;-1.60;99.90
26537;DHT22;14204;51.262;5.488;2024-01-10T00:42:57;-1.60;99.90
26537;DHT22;14204;51.262;5.488;2024-01-10T00:45:22;-1.60;99.90
26537;DHT22;14204;51.262;5.488;2024-01-10T00:47:48;-1.60;99.90
26537;DHT22;14204;51.262;5.488;2024-01-10T00:50:15;-1.70;99.90
26537;DHT22;14204;51.262;5.488;2024-01-10T00:52:40;-1.70;99.90
26537;DHT22;14204;51.262;5.488;2024-01-10T00:55:06;-1.70;99.90
26537;DHT22;14204;51.262;5.488;2024-01-10T00:57:32;-1.70;99.90
26537;DHT22;14204;51.262;5.488;2024-01-10T00:59:58;-1.80;99.90
26537;DHT22;14204;51.262;5.488;2024-01-10T01:02:23;-1.80;99.90
26537;DHT22;14204;51.262;5.488;2024-01-10T01:04:49;-1.80;99.90
26537;DHT22;14204;51.262;5.488;2024-01-10T01:07:15;-1.90;99.90
26537;DHT22;14204;51.262;5.488;2024-01-10T01:09:41;-1.90;99.90
26537;DHT22;14204;51.262;5.488;2024-01-10T01:12:06;-1.90;99.90
26537;DHT22;14204;51.262;5.488;2024-01-10T01:14:32;-1.90;99.90
26537;DHT22;14204;51.262;5.488;2024-01-10T01:16:58;-2.00;99.90
26537;DHT22;14204;51.262;5.488;2024-01-10T01:19:23;-2.00;99.90
26537;DHT22;14204;51.262;5.488;2024-01-10T01:21:49;-2.00;99.90
26537;DHT22;14204;51.262;5.488;2024-01-10T01:24:15;-2.00;99.90
26537;DHT22;14204;51.262;5.488;2024-01-10T01:26:41;-2.00;99.90
26537;DHT22;14204;51.262;5.488;2024-01-10T01:29:06;-2.00;99.90
26537;DHT22;14204;51.262;5.488;2024-01-10T01:31:34;-2.10;99.90
26537;DHT22;14204;51.262;5.488;2024-01-10T01:33:59;-2.10;99.90
26537;DHT22;14204;51.262;5.488;2024-01-10T01:36:25;-2.10;99.90
26537;DHT22;14204;51.262;5.488;2024-01-10T01:38:51;-2.10;99.90
26537;DHT22;14204;51.262;5.488;2024-01-10T01:41:17;-2.10;99.90
26537;DHT22;14204;51.262;5.488;2024-01-10T01:43:43;-2.10;99.90
26537;DHT22;14204;51.262;5.488;2024-01-10T01:46:09;-2.10;99.90
26537;DHT22;14204;51.262;5.488;2024-01-10T01:48:35;-2.10;99.90
26537;DHT22;14204;51.262;5.488;2024-01-10T01:51:04;-2.10;99.90
26537;DHT22;14204;51.262;5.488;2024-01-10T01:53:31;-2.10;99.90
26537;DHT22;14204;51.262;5.488;2024-01-10T01:55:59;-2.10;99.90
26537;DHT22;14204;51.262;5.488;2024-01-10T01:58:26;-2.10;99.90
26537;DHT22;14204;51.262;5.488;2024-01-10T02:00:51;-2.10;99.90
26537;DHT22;14204;51.262;5.488;2024-01-10T02:03:17;-2.10;99.90
26537;DHT22;14204;51.262;5.488;2024-01-10T02:05:43;-2.10;99.90
26537;DHT22;14204;51.262;5.488;2024-01-10T02:08:09;-2.10;99.90
26537;DHT22;14204;51.262;5.488;2024-01-10T02:10:35;-2.20;99.90
26537;DHT22;14204;51.262;5.488;2024-01-10T02:13:01;-2.10;99.90
26537;DHT22;14204;51.262;5.488;2024-01-10T02:15:27;-2.20;99.90
26537;DHT22;14204;51.262;5.488;2024-01-10T02:17:53;-2.20;99.90
26537;DHT22;14204;51.262;5.488;2024-01-10T02:20:18;-2.10;99.90
26537;DHT22;14204;51.262;5.488;2024-01-10T02:22:46;-2.20;99.90
26537;DHT22;14204;51.262;5.488;2024-01-10T02:25:13;-2.10;99.90
26537;DHT22;14204;51.262;5.488;2024-01-10T02:27:40;-2.10;99.90
26537;DHT22;14204;51.262;5.488;2024-01-10T02:30:07;-2.10;99.90
26537;DHT22;14204;51.262;5.488;2024-01-10T02:32:33;-2.20;99.90
26537;DHT22;14204;51.262;5.488;2024-01-10T02:34:59;-2.20;99.90
26537;DHT22;14204;51.262;5.488;2024-01-10T02:37:25;-2.20;99.90
26537;DHT22;14204;51.262;5.488;2024-01-10T02:39:51;-2.20;99.90
26537;DHT22;14204;51.262;5.488;2024-01-10T02:42:17;-2.20;99.90
26537;DHT22;14204;51.262;5.488;2024-01-10T02:44:43;-2.10;99.90
26537;DHT22;14204;51.262;5.488;2024-01-10T02:47:09;-2.10;99.90
26537;DHT22;14204;51.262;5.488;2024-01-10T02:49:35;-2.10;99.90
26537;DHT22;14204;51.262;5.488;2024-01-10T02:52:01;-2.20;99.90
26537;DHT22;14204;51.262;5.488;2024-01-10T02:54:27;-2.20;99.90
26537;DHT22;14204;51.262;5.488;2024-01-10T02:56:52;-2.20;99.90
26537;DHT22;14204;51.262;5.488;2024-01-10T02:59:18;-2.20;99.90
26537;DHT22;14204;51.262;5.488;2024-01-10T03:01:44;-2.30;99.90
26537;DHT22;14204;51.262;5.488;2024-01-10T03:04:10;-2.20;99.90
26537;DHT22;14204;51.262;5.488;2024-01-10T03:06:35;-2.30;99.90
26537;DHT22;14204;51.262;5.488;2024-01-10T03:09:01;-2.30;99.90
26537;DHT22;14204;51.262;5.488;2024-01-10T03:11:27;-2.40;99.90
26537;DHT22;14204;51.262;5.488;2024-01-10T03:14:08;-2.30;99.90
26537;DHT22;14204;51.262;5.488;2024-01-10T03:16:35;-2.30;99.90
26537;DHT22;14204;51.262;5.488;2024-01-10T03:19:00;-2.30;99.90
26537;DHT22;14204;51.262;5.488;2024-01-10T03:21:26;-2.30;99.90
26537;DHT22;14204;51.262;5.488;2024-01-10T03:23:59;-2.30;99.90
26537;DHT22;14204;51.262;5.488;2024-01-10T03:26:25;-2.40;99.90
26537;DHT22;14204;51.262;5.488;2024-01-10T03:28:51;-2.30;99.90
26537;DHT22;14204;51.262;5.488;2024-01-10T03:31:17;-2.40;99.90
26537;DHT22;14204;51.262;5.488;2024-01-10T03:33:43;-2.40;99.90
26537;DHT22;14204;51.262;5.488;2024-01-10T03:36:15;-2.30;99.90
26537;DHT22;14204;51.262;5.488;2024-01-10T03:38:41;-2.30;99.90
26537;DHT22;14204;51.262;5.488;2024-01-10T03:41:06;-2.40;99.90
26537;DHT22;14204;51.262;5.488;2024-01-10T03:43:32;-2.40;99.90
26537;DHT22;14204;51.262;5.488;2024-01-10T03:45:58;-2.40;99.90
26537;DHT22;14204;51.262;5.488;2024-01-10T03:48:24;-2.40;99.90
26537;DHT22;14204;51.262;5.488;2024-01-10T03:50:50;-2.40;99.90
26537;DHT22;14204;51.262;5.488;2024-01-10T03:53:16;-2.50;99.90
26537;DHT22;14204;51.262;5.488;2024-01-10T03:55:41;-2.40;99.90
26537;DHT22;14204;51.262;5.488;2024-01-10T03:58:07;-2.50;99.90
26537;DHT22;14204;51.262;5.488;2024-01-10T04:00:33;-2.50;99.90
26537;DHT22;14204;51.262;5.488;2024-01-10T04:02:59;-2.50;99.90
26537;DHT22;14204;51.262;5.488;2024-01-10T04:05:24;-2.50;99.90
26537;DHT22;14204;51.262;5.488;2024-01-10T04:07:51;-2.60;99.90
26537;DHT22;14204;51.262;5.488;2024-01-10T04:10:17;-2.60;99.90
26537;DHT22;14204;51.262;5.488;2024-01-10T04:12:46;-2.50;99.90
26537;DHT22;14204;51.262;5.488;2024-01-10T04:15:12;-2.50;99.90
26537;DHT22;14204;51.262;5.488;2024-01-10T04:17:38;-2.60;99.90
26537;DHT22;14204;51.262;5.488;2024-01-10T04:20:04;-2.60;99.90
26537;DHT22;14204;51.262;5.488;2024-01-10T04:22:31;-2.60;99.90
26537;DHT22;14204;51.262;5.488;2024-01-10T04:25:00;-2.60;99.90
26537;DHT22;14204;51.262;5.488;2024-01-10T04:27:27;-2.60;99.90
26537;DHT22;14204;51.262;5.488;2024-01-10T04:29:53;-2.60;99.90
26537;DHT22;14204;51.262;5.488;2024-01-10T04:32:19;-2.60;99.90
26537;DHT22;14204;51.262;5.488;2024-01-10T04:34:45;-2.60;99.90
26537;DHT22;14204;51.262;5.488;2024-01-10T04:37:11;-2.60;99.90
26537;DHT22;14204;51.262;5.488;2024-01-10T04:39:37;-2.70;99.90
26537;DHT22;14204;51.262;5.488;2024-01-10T04:42:05;-2.70;99.90
26537;DHT22;14204;51.262;5.488;2024-01-10T04:44:31;-2.70;99.90
26537;DHT22;14204;51.262;5.488;2024-01-10T04:46:57;-2.70;99.90
26537;DHT22;14204;51.262;5.488;2024-01-10T04:49:23;-2.70;99.90
26537;DHT22;14204;51.262;5.488;2024-01-10T04:51:49;-2.70;99.90
26537;DHT22;14204;51.262;5.488;2024-01-10T04:54:15;-2.70;99.90
26537;DHT22;14204;51.262;5.488;2024-01-10T04:56:41;-2.70;99.90
26537;DHT22;14204;51.262;5.488;2024-01-10T04:59:07;-2.70;99.90
26537;DHT22;14204;51.262;5.488;2024-01-10T05:01:32;-2.80;99.90
26537;DHT22;14204;51.262;5.488;2024-01-10T05:03:58;-2.80;99.90
26537;DHT22;14204;51.262;5.488;2024-01-10T05:06:24;-2.80;99.90
26537;DHT22;14204;51.262;5.488;2024-01-10T05:08:50;-2.80;99.90
26537;DHT22;14204;51.262;5.488;2024-01-10T05:11:16;-2.80;99.90
26537;DHT22;14204;51.262;5.488;2024-01-10T05:13:45;-2.80;99.90
26537;DHT22;14204;51.262;5.488;2024-01-10T05:16:10;-2.80;99.90
26537;DHT22;14204;51.262;5.488;2024-01-10T05:18:36;-2.80;99.90
26537;DHT22;14204;51.262;5.488;2024-01-10T05:21:02;-2.80;99.90
26537;DHT22;14204;51.262;5.488;2024-01-10T05:23:29;-2.80;99.90
26537;DHT22;14204;51.262;5.488;2024-01-10T05:25:55;-2.80;99.90
26537;DHT22;14204;51.262;5.488;2024-01-10T05:28:21;-2.80;99.90
26537;DHT22;14204;51.262;5.488;2024-01-10T05:30:46;-2.80;99.90
26537;DHT22;14204;51.262;5.488;2024-01-10T05:33:12;-2.70;99.90
26537;DHT22;14204;51.262;5.488;2024-01-10T05:35:38;-2.80;99.90
26537;DHT22;14204;51.262;5.488;2024-01-10T05:38:04;-2.80;99.90
26537;DHT22;14204;51.262;5.488;2024-01-10T05:40:30;-2.90;99.90
26537;DHT22;14204;51.262;5.488;2024-01-10T05:42:57;-2.90;99.90
26537;DHT22;14204;51.262;5.488;2024-01-10T05:45:25;-2.80;99.90
26537;DHT22;14204;51.262;5.488;2024-01-10T05:47:52;-2.90;99.90
26537;DHT22;14204;51.262;5.488;2024-01-10T05:50:18;-2.90;99.90
26537;DHT22;14204;51.262;5.488;2024-01-10T05:52:45;-2.90;99.90
26537;DHT22;14204;51.262;5.488;2024-01-10T05:55:11;-2.90;99.90
26537;DHT22;14204;51.262;5.488;2024-01-10T05:57:37;-2.90;99.90
26537;DHT22;14204;51.262;5.488;2024-01-10T06:00:03;-2.90;99.90
26537;DHT22;14204;51.262;5.488;2024-01-10T06:02:30;-2.90;99.90
26537;DHT22;14204;51.262;5.488;2024-01-10T06:04:56;-2.80;99.90
26537;DHT22;14204;51.262;5.488;2024-01-10T06:07:21;-2.90;99.90
26537;DHT22;14204;51.262;5.488;2024-01-10T06:09:47;-2.80;99.90
26537;DHT22;14204;51.262;5.488;2024-01-10T06:12:13;-2.90;99.90
26537;DHT22;14204;51.262;5.488;2024-01-10T06:14:39;-2.90;99.90
26537;DHT22;14204;51.262;5.488;2024-01-10T06:17:05;-2.90;99.90
26537;DHT22;14204;51.262;5.488;2024-01-10T06:19:31;-3.00;99.90
26537;DHT22;14204;51.262;5.488;2024-01-10T06:21:58;-2.90;99.90
26537;DHT22;14204;51.262;5.488;2024-01-10T06:24:24;-2.90;99.90
26537;DHT22;14204;51.262;5.488;2024-01-10T06:26:50;-2.90;99.90
26537;DHT22;14204;51.262;5.488;2024-01-10T06:29:16;-2.90;99.90
26537;DHT22;14204;51.262;5.488;2024-01-10T06:31:42;-2.90;99.90
26537;DHT22;14204;51.262;5.488;2024-01-10T06:34:08;-3.00;99.90
26537;DHT22;14204;51.262;5.488;2024-01-10T06:36:34;-3.00;99.90
26537;DHT22;14204;51.262;5.488;2024-01-10T06:39:00;-3.00;99.90
26537;DHT22;14204;51.262;5.488;2024-01-10T06:41:26;-3.00;99.90
26537;DHT22;14204;51.262;5.488;2024-01-10T06:43:52;-2.90;99.90
26537;DHT22;14204;51.262;5.488;2024-01-10T06:46:19;-2.90;99.90
26537;DHT22;14204;51.262;5.488;2024-01-10T06:48:45;-2.90;99.90
26537;DHT22;14204;51.262;5.488;2024-01-10T06:51:13;-3.00;99.90
26537;DHT22;14204;51.262;5.488;2024-01-10T06:53:39;-3.00;99.90
26537;DHT22;14204;51.262;5.488;2024-01-10T06:56:05;-3.10;99.90
26537;DHT22;14204;51.262;5.488;2024-01-10T06:58:31;-3.00;99.90
26537;DHT22;14204;51.262;5.488;2024-01-10T07:00:57;-3.00;99.90
26537;DHT22;14204;51.262;5.488;2024-01-10T07:03:23;-3.10;99.90
26537;DHT22;14204;51.262;5.488;2024-01-10T07:05:49;-3.00;99.90
26537;DHT22;14204;51.262;5.488;2024-01-10T07:08:14;-3.00;99.90
26537;DHT22;14204;51.262;5.488;2024-01-10T07:10:42;-3.00;99.90
26537;DHT22;14204;51.262;5.488;2024-01-10T07:13:08;-3.00;99.90
26537;DHT22;14204;51.262;5.488;2024-01-10T07:15:33;-3.00;99.90
26537;DHT22;14204;51.262;5.488;2024-01-10T07:17:59;-3.00;99.90
26537;DHT22;14204;51.262;5.488;2024-01-10T07:20:25;-3.00;99.90
26537;DHT22;14204;51.262;5.488;2024-01-10T07:22:50;-2.90;99.90
26537;DHT22;14204;51.262;5.488;2024-01-10T07:25:17;-2.90;99.90
26537;DHT22;14204;51.262;5.488;2024-01-10T07:27:43;-2.90;99.90
26537;DHT22;14204;51.262;5.488;2024-01-10T07:30:09;-2.90;99.90
26537;DHT22;14204;51.262;5.488;2024-01-10T07:32:45;-3.00;99.90
26537;DHT22;14204;51.262;5.488;2024-01-10T07:35:12;-3.00;99.90
26537;DHT22;14204;51.262;5.488;2024-01-10T07:37:47;-3.00;99.90
26537;DHT22;14204;51.262;5.488;2024-01-10T07:40:13;-3.00;99.90
26537;DHT22;14204;51.262;5.488;2024-01-10T07:42:45;-3.00;99.90
26537;DHT22;14204;51.262;5.488;2024-01-10T07:45:11;-3.00;99.90
26537;DHT22;14204;51.262;5.488;2024-01-10T07:47:38;-2.90;99.90
26537;DHT22;14204;51.262;5.488;2024-01-10T07:50:07;-2.90;99.90
26537;DHT22;14204;51.262;5.488;2024-01-10T07:52:33;-2.90;99.90
26537;DHT22;14204;51.262;5.488;2024-01-10T07:55:00;-3.00;99.90
26537;DHT22;14204;51.262;5.488;2024-01-10T07:57:26;-3.00;99.90
26537;DHT22;14204;51.262;5.488;2024-01-10T07:59:53;-3.00;99.90
26537;DHT22;14204;51.262;5.488;2024-01-10T08:02:19;-3.00;99.90
26537;DHT22;14204;51.262;5.488;2024-01-10T08:04:44;-2.90;99.90
26537;DHT22;14204;51.262;5.488;2024-01-10T08:07:10;-2.90;99.90
26537;DHT22;14204;51.262;5.488;2024-01-10T08:09:36;-2.90;99.90
26537;DHT22;14204;51.262;5.488;2024-01-10T08:12:03;-2.90;99.90
26537;DHT22;14204;51.262;5.488;2024-01-10T08:14:29;-3.00;99.90
26537;DHT22;14204;51.262;5.488;2024-01-10T08:16:55;-2.90;99.90
26537;DHT22;14204;51.262;5.488;2024-01-10T08:19:24;-3.00;99.90
26537;DHT22;14204;51.262;5.488;2024-01-10T08:21:55;-2.90;99.90
26537;DHT22;14204;51.262;5.488;2024-01-10T08:24:20;-2.90;99.90
26537;DHT22;14204;51.262;5.488;2024-01-10T08:26:52;-2.90;99.90
26537;DHT22;14204;51.262;5.488;2024-01-10T08:29:20;-2.90;99.90
26537;DHT22;14204;51.262;5.488;2024-01-10T08:31:47;-2.90;99.90
26537;DHT22;14204;51.262;5.488;2024-01-10T08:34:13;-2.90;99.90
26537;DHT22;14204;51.262;5.488;2024-01-10T08:36:39;-2.90;99.90
26537;DHT22;14204;51.262;5.488;2024-01-10T08:39:05;-2.80;99.90
26537;DHT22;14204;51.262;5.488;2024-01-10T08:41:32;-2.80;99.90
26537;DHT22;14204;51.262;5.488;2024-01-10T08:43:58;-2.80;99.90
26537;DHT22;14204;51.262;5.488;2024-01-10T08:46:25;-2.80;99.90
26537;DHT22;14204;51.262;5.488;2024-01-10T08:48:51;-2.80;99.90
26537;DHT22;14204;51.262;5.488;2024-01-10T08:51:16;-2.90;99.90
26537;DHT22;14204;51.262;5.488;2024-01-10T08:53:43;-2.80;99.90
26537;DHT22;14204;51.262;5.488;2024-01-10T08:56:09;-2.80;99.90
26537;DHT22;14204;51.262;5.488;2024-01-10T08:58:36;-2.70;99.90
26537;DHT22;14204;51.262;5.488;2024-01-10T09:01:02;-2.70;99.90
26537;DHT22;14204;51.262;5.488;2024-01-10T09:03:30;-2.70;99.90
26537;DHT22;14204;51.262;5.488;2024-01-10T09:05:55;-2.70;99.90
26537;DHT22;14204;51.262;5.488;2024-01-10T09:08:22;-2.70;99.90
26537;DHT22;14204;51.262;5.488;2024-01-10T09:10:48;-2.70;99.90
26537;DHT22;14204;51.262;5.488;2024-01-10T09:13:14;-2.70;99.90
26537;DHT22;14204;51.262;5.488;2024-01-10T09:15:40;-2.80;99.90
26537;DHT22;14204;51.262;5.488;2024-01-10T09:18:06;-2.70;99.90
26537;DHT22;14204;51.262;5.488;2024-01-10T09:20:32;-2.60;99.90
26537;DHT22;14204;51.262;5.488;2024-01-10T09:22:57;-2.70;99.90
26537;DHT22;14204;51.262;5.488;2024-01-10T09:25:26;-2.60;99.90
26537;DHT22;14204;51.262;5.488;2024-01-10T09:27:51;-2.70;99.90
26537;DHT22;14204;51.262;5.488;2024-01-10T09:30:17;-2.60;99.90
26537;DHT22;14204;51.262;5.488;2024-01-10T09:32:44;-2.50;99.90
26537;DHT22;14204;51.262;5.488;2024-01-10T09:35:10;-2.50;99.90
26537;DHT22;14204;51.262;5.488;2024-01-10T09:37:36;-2.40;99.90
26537;DHT22;14204;51.262;5.488;2024-01-10T09:40:02;-2.30;99.90
26537;DHT22;14204;51.262;5.488;2024-01-10T09:42:29;-2.30;99.90
26537;DHT22;14204;51.262;5.488;2024-01-10T09:44:57;-2.30;99.90
26537;DHT22;14204;51.262;5.488;2024-01-10T09:47:24;-2.20;99.90
26537;DHT22;14204;51.262;5.488;2024-01-10T09:49:51;-2.00;99.90
26537;DHT22;14204;51.262;5.488;2024-01-10T09:54:53;-1.90;99.90
26537;DHT22;14204;51.262;5.488;2024-01-10T09:57:19;-1.90;99.90
26537;DHT22;14204;51.262;5.488;2024-01-10T09:59:47;-1.90;99.90
26537;DHT22;14204;51.262;5.488;2024-01-10T10:02:14;-1.90;99.90
26537;DHT22;14204;51.262;5.488;2024-01-10T10:07:24;-1.70;99.90
26537;DHT22;14204;51.262;5.488;2024-01-10T10:09:51;-1.70;99.90
26537;DHT22;14204;51.262;5.488;2024-01-10T10:12:18;-1.60;99.90
26537;DHT22;14204;51.262;5.488;2024-01-10T10:14:44;-1.50;99.90
26537;DHT22;14204;51.262;5.488;2024-01-10T10:17:17;-1.50;99.90
26537;DHT22;14204;51.262;5.488;2024-01-10T10:19:43;-1.40;99.90
26537;DHT22;14204;51.262;5.488;2024-01-10T10:22:10;-1.30;99.90
26537;DHT22;14204;51.262;5.488;2024-01-10T10:24:37;-1.10;99.90
26537;DHT22;14204;51.262;5.488;2024-01-10T10:27:11;-1.20;99.90
26537;DHT22;14204;51.262;5.488;2024-01-10T10:29:38;-1.10;99.90
26537;DHT22;14204;51.262;5.488;2024-01-10T10:32:05;-1.10;99.90
26537;DHT22;14204;51.262;5.488;2024-01-10T10:34:31;-1.10;99.90
26537;DHT22;14204;51.262;5.488;2024-01-10T10:37:01;-1.00;99.90
26537;DHT22;14204;51.262;5.488;2024-01-10T10:39:28;-0.90;99.90
26537;DHT22;14204;51.262;5.488;2024-01-10T10:41:54;-1.00;99.90
26537;DHT22;14204;51.262;5.488;2024-01-10T10:44:24;-0.90;99.90
26537;DHT22;14204;51.262;5.488;2024-01-10T10:46:53;-1.00;99.90
26537;DHT22;14204;51.262;5.488;2024-01-10T10:49:28;-0.90;99.90
26537;DHT22;14204;51.262;5.488;2024-01-10T10:51:58;-0.70;99.90
26537;DHT22;14204;51.262;5.488;2024-01-10T10:54:29;-0.70;99.90
26537;DHT22;14204;51.262;5.488;2024-01-10T10:56:58;-0.70;99.90
26537;DHT22;14204;51.262;5.488;2024-01-10T10:59:26;-0.70;99.90
26537;DHT22;14204;51.262;5.488;2024-01-10T11:01:54;-0.60;99.90
26537;DHT22;14204;51.262;5.488;2024-01-10T11:04:21;-0.60;99.90
26537;DHT22;14204;51.262;5.488;2024-01-10T11:06:47;-0.60;99.90
26537;DHT22;14204;51.262;5.488;2024-01-10T11:09:15;-0.50;99.90
26537;DHT22;14204;51.262;5.488;2024-01-10T11:20:14;-0.50;99.90
26537;DHT22;14204;51.262;5.488;2024-01-10T11:25:18;-0.30;99.90
26537;DHT22;14204;51.262;5.488;2024-01-10T11:27:46;-0.30;99.90
26537;DHT22;14204;51.262;5.488;2024-01-10T11:30:37;-0.30;99.90
26537;DHT22;14204;51.262;5.488;2024-01-10T11:33:45;-0.30;99.90
26537;DHT22;14204;51.262;5.488;2024-01-10T11:36:16;-0.10;99.90
26537;DHT22;14204;51.262;5.488;2024-01-10T11:41:32;0.00;99.90
26537;DHT22;14204;51.262;5.488;2024-01-10T11:46:49;0.00;99.90
26537;DHT22;14204;51.262;5.488;2024-01-10T11:49:20;0.10;99.90
26537;DHT22;14204;51.262;5.488;2024-01-10T11:51:52;0.10;99.90
26537;DHT22;14204;51.262;5.488;2024-01-10T11:57:07;0.00;99.90
26537;DHT22;14204;51.262;5.488;2024-01-10T11:59:33;0.10;99.90
26537;DHT22;14204;51.262;5.488;2024-01-10T12:01:59;0.00;99.90
26537;DHT22;14204;51.262;5.488;2024-01-10T12:04:26;0.20;99.90
26537;DHT22;14204;51.262;5.488;2024-01-10T12:06:55;0.20;99.90
26537;DHT22;14204;51.262;5.488;2024-01-10T12:09:22;0.30;99.90
26537;DHT22;14204;51.262;5.488;2024-01-10T12:11:50;0.30;99.90
26537;DHT22;14204;51.262;5.488;2024-01-10T12:14:17;0.40;99.90
26537;DHT22;14204;51.262;5.488;2024-01-10T12:16:43;0.40;99.90
26537;DHT22;14204;51.262;5.488;2024-01-10T12:19:08;0.40;99.90
26537;DHT22;14204;51.262;5.488;2024-01-10T12:21:34;0.40;99.90
26537;DHT22;14204;51.262;5.488;2024-01-10T12:24:00;0.40;99.90
26537;DHT22;14204;51.262;5.488;2024-01-10T12:26:26;0.50;99.90
26537;DHT22;14204;51.262;5.488;2024-01-10T12:28:58;0.50;99.90
26537;DHT22;14204;51.262;5.488;2024-01-10T12:31:27;0.50;99.90
26537;DHT22;14204;51.262;5.488;2024-01-10T12:33:56;0.50;99.90
26537;DHT22;14204;51.262;5.488;2024-01-10T12:36:22;0.40;99.90
26537;DHT22;14204;51.262;5.488;2024-01-10T12:38:49;0.40;99.90
26537;DHT22;14204;51.262;5.488;2024-01-10T12:41:15;0.60;99.90
26537;DHT22;14204;51.262;5.488;2024-01-10T12:43:42;0.70;99.90
26537;DHT22;14204;51.262;5.488;2024-01-10T12:46:12;0.70;99.90
26537;DHT22;14204;51.262;5.488;2024-01-10T12:48:41;0.60;99.90
26537;DHT22;14204;51.262;5.488;2024-01-10T12:51:11;0.60;99.90
26537;DHT22;14204;51.262;5.488;2024-01-10T12:53:39;0.60;99.90
26537;DHT22;14204;51.262;5.488;2024-01-10T12:56:06;0.70;99.90
26537;DHT22;14204;51.262;5.488;2024-01-10T12:58:32;0.60;99.90
26537;DHT22;14204;51.262;5.488;2024-01-10T13:00:58;0.70;99.90
26537;DHT22;14204;51.262;5.488;2024-01-10T13:03:25;0.80;99.90
26537;DHT22;14204;51.262;5.488;2024-01-10T13:05:51;0.80;99.90
26537;DHT22;14204;51.262;5.488;2024-01-10T13:08:17;0.80;99.90
26537;DHT22;14204;51.262;5.488;2024-01-10T13:10:45;0.80;99.90
26537;DHT22;14204;51.262;5.488;2024-01-10T13:13:11;0.80;99.90
26537;DHT22;14204;51.262;5.488;2024-01-10T13:15:38;0.70;99.90
26537;DHT22;14204;51.262;5.488;2024-01-10T13:18:03;0.80;99.90
26537;DHT22;14204;51.262;5.488;2024-01-10T13:20:29;0.90;99.90
26537;DHT22;14204;51.262;5.488;2024-01-10T13:22:55;0.90;99.90
26537;DHT22;14204;51.262;5.488;2024-01-10T13:25:21;1.00;99.90
26537;DHT22;14204;51.262;5.488;2024-01-10T13:27:52;1.00;99.90
26537;DHT22;14204;51.262;5.488;2024-01-10T13:30:18;0.90;99.90
26537;DHT22;14204;51.262;5.488;2024-01-10T13:32:45;1.00;99.90
26537;DHT22;14204;51.262;5.488;2024-01-10T13:35:13;1.00;99.90
26537;DHT22;14204;51.262;5.488;2024-01-10T13:37:39;1.00;99.90
26537;DHT22;14204;51.262;5.488;2024-01-10T13:40:09;1.10;99.90
26537;DHT22;14204;51.262;5.488;2024-01-10T13:42:39;1.10;99.90
26537;DHT22;14204;51.262;5.488;2024-01-10T13:45:05;1.10;99.90
26537;DHT22;14204;51.262;5.488;2024-01-10T13:47:32;1.10;99.90
26537;DHT22;14204;51.262;5.488;2024-01-10T13:50:01;1.00;99.90
26537;DHT22;14204;51.262;5.488;2024-01-10T13:52:28;1.10;99.90
26537;DHT22;14204;51.262;5.488;2024-01-10T13:54:54;1.10;99.90
26537;DHT22;14204;51.262;5.488;2024-01-10T13:57:21;1.20;99.90
26537;DHT22;14204;51.262;5.488;2024-01-10T13:59:47;1.10;99.90
26537;DHT22;14204;51.262;5.488;2024-01-10T14:02:13;1.00;99.90
26537;DHT22;14204;51.262;5.488;2024-01-10T14:04:39;1.10;99.90
26537;DHT22;14204;51.262;5.488;2024-01-10T14:07:05;1.00;99.90
26537;DHT22;14204;51.262;5.488;2024-01-10T14:09:31;1.10;99.90
26537;DHT22;14204;51.262;5.488;2024-01-10T14:11:57;1.00;99.90
26537;DHT22;14204;51.262;5.488;2024-01-10T14:14:23;1.00;99.90
26537;DHT22;14204;51.262;5.488;2024-01-10T14:16:49;1.00;99.90
26537;DHT22;14204;51.262;5.488;2024-01-10T14:19:15;1.00;99.90
26537;DHT22;14204;51.262;5.488;2024-01-10T14:21:44;1.00;99.90
26537;DHT22;14204;51.262;5.488;2024-01-10T14:24:11;0.90;99.90
26537;DHT22;14204;51.262;5.488;2024-01-10T14:26:37;0.90;99.90
26537;DHT22;14204;51.262;5.488;2024-01-10T14:29:03;1.00;99.90
26537;DHT22;14204;51.262;5.488;2024-01-10T14:31:29;1.00;99.90
26537;DHT22;14204;51.262;5.488;2024-01-10T14:33:54;0.90;99.90
26537;DHT22;14204;51.262;5.488;2024-01-10T14:36:22;0.90;99.90
26537;DHT22;14204;51.262;5.488;2024-01-10T14:38:48;0.90;99.90
26537;DHT22;14204;51.262;5.488;2024-01-10T14:41:13;0.90;99.90
26537;DHT22;14204;51.262;5.488;2024-01-10T14:43:39;0.90;99.90
26537;DHT22;14204;51.262;5.488;2024-01-10T14:46:05;1.00;99.90
26537;DHT22;14204;51.262;5.488;2024-01-10T14:48:35;0.90;99.90
26537;DHT22;14204;51.262;5.488;2024-01-10T14:51:01;0.90;99.90
26537;DHT22;14204;51.262;5.488;2024-01-10T14:53:27;0.90;99.90
26537;DHT22;14204;51.262;5.488;2024-01-10T14:55:53;0.90;99.90
26537;DHT22;14204;51.262;5.488;2024-01-10T14:58:19;0.90;99.90
26537;DHT22;14204;51.262;5.488;2024-01-10T15:00:46;0.90;99.90
26537;DHT22;14204;51.262;5.488;2024-01-10T15:03:12;0.90;99.90
26537;DHT22;14204;51.262;5.488;2024-01-10T15:05:40;1.00;99.90
26537;DHT22;14204;51.262;5.488;2024-01-10T15:08:07;1.10;99.90
26537;DHT22;14204;51.262;5.488;2024-01-10T15:10:37;1.10;99.90
26537;DHT22;14204;51.262;5.488;2024-01-10T15:13:11;1.10;99.90
26537;DHT22;14204;51.262;5.488;2024-01-10T15:15:40;1.20;99.90
26537;DHT22;14204;51.262;5.488;2024-01-10T15:18:08;1.20;99.90
26537;DHT22;14204;51.262;5.488;2024-01-10T15:20:33;1.10;99.90
26537;DHT22;14204;51.262;5.488;2024-01-10T15:22:59;1.10;99.90
26537;DHT22;14204;51.262;5.488;2024-01-10T15:25:25;1.00;99.90
26537;DHT22;14204;51.262;5.488;2024-01-10T15:27:51;1.00;99.90
26537;DHT22;14204;51.262;5.488;2024-01-10T15:30:17;0.90;99.90
26537;DHT22;14204;51.262;5.488;2024-01-10T15:32:49;1.00;99.90
26537;DHT22;14204;51.262;5.488;2024-01-10T15:35:15;1.10;99.90
26537;DHT22;14204;51.262;5.488;2024-01-10T15:37:41;1.10;99.90
26537;DHT22;14204;51.262;5.488;2024-01-10T15:40:08;1.10;99.90
26537;DHT22;14204;51.262;5.488;2024-01-10T15:42:35;1.00;99.90
26537;DHT22;14204;51.262;5.488;2024-01-10T15:45:01;1.10;99.90
26537;DHT22;14204;51.262;5.488;2024-01-10T15:47:27;1.10;99.90
26537;DHT22;14204;51.262;5.488;2024-01-10T15:49:53;1.10;99.90
26537;DHT22;14204;51.262;5.488;2024-01-10T15:52:19;1.20;99.90
26537;DHT22;14204;51.262;5.488;2024-01-10T15:54:54;1.10;99.90
26537;DHT22;14204;51.262;5.488;2024-01-10T15:57:21;1.10;99.90